Terminal Aerodrome Forecast
Issued by NWS Boston, MA

Current Version | Previous Version | Text Only | Print | Product List | Glossary On
Versions: 1 2 3 4 5 6 7 8 9 10 11 12 13 14 15
000
FTUS41 KBOX 110539
TAFORH
TAF
KORH 110539Z 1106/1206 19003KT P6SM BKN007
     FM110900 27003KT P6SM BKN015
     FM111000 00000KT 6SM BR BKN015
     FM111200 26003KT P6SM VCSH OVC070
     FM111700 26005KT P6SM BKN150
     FM120300 30006KT P6SM OVC100=

USA.gov is the U.S. government's official web portal to all federal, state and local government web resources and services.